Terminal Aerodrome Forecast
Issued by NWS Louisville, KY

Home | Current Version | Previous Version | Text Only | Print | Product List | Glossary On
Versions: 1 2 3 4 5 6 7 8 9 10 11 12 13 14
907
FTUS43 KLMK 161812 AAA
TAFLEX
TAF AMD
KLEX 161812Z 1618/1718 22015G22KT P6SM SKC
     FM162300 19010KT P6SM FEW250
     FM171500 19008KT P6SM SCT060 BKN120 PROB30 1716/1718 4SM -SHRA
      OVC040=

USA.gov is the U.S. government's official web portal to all federal, state and local government web resources and services.